createdAt,value
2022-12-28T00:01:26.845Z,98107.19
2022-12-28T00:03:55.439Z,98108.03
2022-12-28T00:06:25.146Z,98099.13
2022-12-28T00:08:53.944Z,98101.16
2022-12-28T00:11:27.887Z,98091.44
2022-12-28T00:14:01.426Z,98091.34
2022-12-28T00:16:32.643Z,98100.31
2022-12-28T00:19:02.672Z,98091.34
2022-12-28T00:21:31.242Z,98091.56
2022-12-28T00:24:00.716Z,98096.84
2022-12-28T00:26:30.733Z,98090.59
2022-12-28T00:29:04.813Z,98082.69
2022-12-28T00:31:35.344Z,98082.69
2022-12-28T00:34:04.465Z,98076.56
2022-12-28T00:37:08.790Z,98062.53
2022-12-28T00:39:22.310Z,98064.31
2022-12-28T00:41:50.904Z,98066.25
2022-12-28T00:44:19.380Z,98059.16
2022-12-28T00:46:51.345Z,98060.13
2022-12-28T00:49:19.982Z,98070.56
2022-12-28T00:51:48.440Z,98074.28
2022-12-28T00:54:16.937Z,98073.44
2022-12-28T00:56:46.272Z,98064.66
2022-12-28T00:59:16.314Z,98068.03
2022-12-28T01:01:44.884Z,98065.63
2022-12-28T01:04:14.749Z,98071.88
2022-12-28T01:06:43.580Z,98065.63
2022-12-28T01:09:12.003Z,98064.66
2022-12-28T01:11:40.452Z,98063.72
2022-12-28T01:14:09.075Z,98070.78
2022-12-28T01:16:38.015Z,98072.81
2022-12-28T01:19:08.032Z,98071.88
2022-12-28T01:21:38.016Z,98074.50
2022-12-28T01:24:08.714Z,98065.84
2022-12-28T01:26:37.361Z,98065.84
2022-12-28T01:29:06.078Z,98066.69
2022-12-28T01:31:34.750Z,98070.41
2022-12-28T01:34:03.538Z,98058.91
2022-12-28T01:36:34.933Z,98054.47
2022-12-28T01:39:06.442Z,98051.94
2022-12-28T01:41:38.798Z,98045.69
2022-12-28T01:44:40.315Z,98044.84
2022-12-28T01:47:11.791Z,98039.81
2022-12-28T01:49:42.280Z,98037.91
2022-12-28T01:52:14.073Z,98032.84
2022-12-28T01:54:45.477Z,98022.28
2022-12-28T01:57:14.304Z,98019.53
2022-12-28T01:59:45.223Z,98017.00
2022-12-28T02:02:15.121Z,98010.91
2022-12-28T02:04:44.211Z,98010.91
2022-12-28T02:07:13.784Z,98011.00
2022-12-28T02:09:44.179Z,98006.47
2022-12-28T02:12:33.625Z,97995.19
2022-12-28T02:15:02.590Z,98004.91
2022-12-28T02:17:31.117Z,98000.69
2022-12-28T02:19:59.549Z,98004.16
2022-12-28T02:22:53.523Z,97994.44
2022-12-28T02:25:52.163Z,97992.91
2022-12-28T02:28:55.411Z,97990.13
2022-12-28T02:31:31.695Z,97977.91
2022-12-28T02:34:07.049Z,97976.25
2022-12-28T02:36:39.741Z,97967.59
2022-12-28T02:39:11.063Z,97966.53
2022-12-28T02:41:40.415Z,97967.34
2022-12-28T02:44:09.439Z,97959.56
2022-12-28T02:46:57.247Z,97949.97
2022-12-28T02:49:44.589Z,97953.56
2022-12-28T02:52:20.665Z,97951.88
2022-12-28T02:55:21.227Z,97942.28
2022-12-28T02:58:07.207Z,97938.81
2022-12-28T03:00:50.232Z,97939.66
2022-12-28T03:03:25.806Z,97936.19
2022-12-28T03:06:14.612Z,97931.75
2022-12-28T03:08:52.576Z,97928.50
2022-12-28T03:11:24.371Z,97925.75
2022-12-28T03:13:56.544Z,97920.34
2022-12-28T03:16:28.712Z,97917.22
2022-12-28T03:19:20.666Z,97916.38
2022-12-28T03:22:08.318Z,97918.78
2022-12-28T03:24:56.169Z,97917.22
2022-12-28T03:27:46.429Z,97907.75
2022-12-28T03:30:38.769Z,97908.59
2022-12-28T03:33:10.354Z,97901.63
2022-12-28T03:35:44.316Z,97912.19
2022-12-28T03:38:14.991Z,97903.41
2022-12-28T03:40:48.841Z,97899.94
2022-12-28T03:43:40.502Z,97882.31
2022-12-28T03:46:14.939Z,97877.16
2022-12-28T03:48:45.547Z,97884.22
2022-12-28T03:51:17.849Z,97871.16
2022-12-28T03:53:47.656Z,97874.63
2022-12-28T03:56:20.856Z,97866.84
2022-12-28T03:58:51.044Z,97877.41
2022-12-28T04:01:22.193Z,97870.31
2022-12-28T04:03:51.066Z,97868.03
2022-12-28T04:06:21.566Z,97867.91
2022-12-28T04:08:50.781Z,97855.81
2022-12-28T04:11:19.279Z,97870.66
2022-12-28T04:13:52.050Z,97867.31
2022-12-28T04:16:20.748Z,97859.41
2022-12-28T04:18:49.366Z,97862.88
2022-12-28T04:21:18.058Z,97858.56
2022-12-28T04:23:48.431Z,97860.34
2022-12-28T04:26:19.646Z,97857.72
2022-12-28T04:28:50.347Z,97863.94
2022-12-28T04:31:18.852Z,97863.09
2022-12-28T04:33:54.249Z,97860.47
2022-12-28T04:36:22.760Z,97859.50
2022-12-28T04:38:53.684Z,97856.16
2022-12-28T04:41:22.159Z,97851.84
2022-12-28T04:43:50.557Z,97857.09
2022-12-28T04:46:19.142Z,97855.44
2022-12-28T04:48:47.704Z,97848.34
2022-12-28T04:51:19.535Z,97843.19
2022-12-28T04:53:48.235Z,97850.38
2022-12-28T04:56:19.014Z,97845.13
2022-12-28T04:58:47.956Z,97837.22
2022-12-28T05:01:18.664Z,97834.69
2022-12-28T05:03:55.053Z,97831.22
2022-12-28T05:06:25.743Z,97820.78
2022-12-28T05:08:54.465Z,97818.03
2022-12-28T05:11:26.241Z,97837.44
2022-12-28T05:13:54.923Z,97824.38
2022-12-28T05:16:25.326Z,97828.81
2022-12-28T05:18:53.805Z,97828.81
2022-12-28T05:21:23.460Z,97829.88
2022-12-28T05:23:53.376Z,97830.72
2022-12-28T05:26:24.413Z,97828.91
2022-12-28T05:28:53.086Z,97821.97
2022-12-28T05:31:22.845Z,97825.44
2022-12-28T05:33:51.434Z,97820.16
2022-12-28T05:36:21.310Z,97823.75
2022-12-28T05:38:50.213Z,97828.19
2022-12-28T05:41:23.171Z,97836.22
2022-12-28T05:43:53.379Z,97830.94
2022-12-28T05:46:24.295Z,97837.06
2022-12-28T05:48:53.187Z,97826.72
2022-12-28T05:51:23.246Z,97823.25
2022-12-28T05:53:51.840Z,97817.13
2022-12-28T05:56:22.155Z,97818.09
2022-12-28T05:58:55.923Z,97810.19
2022-12-28T06:01:25.678Z,97800.59
2022-12-28T06:03:55.640Z,97800.59
2022-12-28T06:06:24.316Z,97801.53
2022-12-28T06:08:52.896Z,97805.97
2022-12-28T06:11:23.285Z,97804.41
2022-12-28T06:13:52.382Z,97809.69
2022-12-28T06:16:24.127Z,97813.88
2022-12-28T06:18:53.036Z,97812.31
2022-12-28T06:21:24.641Z,97818.44
2022-12-28T06:23:53.150Z,97808.00
2022-12-28T06:26:22.339Z,97814.22
2022-12-28T06:28:51.474Z,97808.00
2022-12-28T06:31:23.144Z,97808.84
2022-12-28T06:33:53.797Z,97812.44
2022-12-28T06:36:23.826Z,97805.59
2022-12-28T06:38:53.732Z,97817.00
2022-12-28T06:41:23.279Z,97809.06
2022-12-28T06:43:52.109Z,97804.66
2022-12-28T06:46:23.338Z,97797.69
2022-12-28T06:48:51.845Z,97792.53
2022-12-28T06:51:22.314Z,97810.16
2022-12-28T06:53:52.701Z,97811.00
2022-12-28T06:56:23.796Z,97815.41
2022-12-28T06:58:58.425Z,97811.22
2022-12-28T07:01:33.612Z,97805.94
2022-12-28T07:04:03.567Z,97799.72
2022-12-28T07:06:36.052Z,97794.44
2022-12-28T07:09:07.637Z,97802.34
2022-12-28T07:11:36.985Z,97797.19
2022-12-28T07:14:05.809Z,97799.84
2022-12-28T07:19:06.112Z,97792.78
2022-12-28T07:21:36.287Z,97797.19
2022-12-28T07:24:06.147Z,97792.88
2022-12-28T07:26:36.296Z,97791.09
2022-12-28T07:29:06.422Z,97790.25
2022-12-28T07:31:44.235Z,97785.81
2022-12-28T07:34:14.874Z,97785.94
2022-12-28T07:36:43.729Z,97781.63
2022-12-28T07:39:12.183Z,97785.09
2022-12-28T07:41:40.866Z,97793.00
2022-12-28T07:44:11.486Z,97785.09
2022-12-28T07:46:41.269Z,97787.72
2022-12-28T07:49:09.804Z,97785.94
2022-12-28T07:51:39.545Z,97786.78
2022-12-28T07:54:08.360Z,97774.56
2022-12-28T07:59:06.069Z,97765.81
2022-12-28T08:01:36.963Z,97770.25
2022-12-28T08:04:09.136Z,97771.91
2022-12-28T08:06:39.964Z,97774.56
2022-12-28T08:09:10.979Z,97775.50
2022-12-28T08:11:40.818Z,97787.84
2022-12-28T08:14:09.653Z,97788.69
2022-12-28T08:16:39.977Z,97779.81
2022-12-28T08:19:12.087Z,97779.81
2022-12-28T08:21:43.571Z,97773.72
2022-12-28T08:24:16.097Z,97770.13
2022-12-28T08:26:45.371Z,97756.81
2022-12-28T08:29:16.195Z,97759.47
2022-12-28T08:31:45.911Z,97761.13
2022-12-28T08:34:18.242Z,97763.78
2022-12-28T08:36:47.130Z,97759.47
2022-12-28T08:39:15.605Z,97749.66
2022-12-28T08:41:44.314Z,97754.06
2022-12-28T08:44:12.815Z,97751.31
2022-12-28T08:46:41.561Z,97751.31
2022-12-28T08:49:10.371Z,97748.69
2022-12-28T08:51:42.367Z,97737.19
2022-12-28T08:54:13.584Z,97744.25
2022-12-28T08:56:44.004Z,97739.72
2022-12-28T08:59:15.087Z,97735.38
2022-12-28T09:01:44.730Z,97742.22
2022-12-28T09:04:15.717Z,97723.88
2022-12-28T09:06:45.541Z,97727.38
2022-12-28T09:09:15.719Z,97731.56
2022-12-28T09:11:45.198Z,97736.72
2022-12-28T09:14:22.637Z,97733.34
2022-12-28T09:16:52.444Z,97735.03
2022-12-28T09:19:21.463Z,97729.75
2022-12-28T09:21:53.120Z,97732.16
2022-12-28T09:24:22.200Z,97724.13
2022-12-28T09:26:53.082Z,97724.84
2022-12-28T09:29:21.844Z,97720.41
2022-12-28T09:31:50.238Z,97725.69
2022-12-28T09:37:09.158Z,97725.56
2022-12-28T09:39:37.628Z,97723.78
2022-12-28T09:42:09.581Z,97723.78
2022-12-28T09:44:53.616Z,97715.88
2022-12-28T09:47:26.957Z,97726.41
2022-12-28T09:50:03.742Z,97713.16
2022-12-28T09:52:35.620Z,97710.50
2022-12-28T09:55:08.691Z,97714.06
2022-12-28T09:57:39.924Z,97707.97
2022-12-28T10:00:16.978Z,97709.66
2022-12-28T10:02:47.121Z,97711.34
2022-12-28T10:05:15.724Z,97699.97
2022-12-28T10:07:45.505Z,97700.69
2022-12-28T10:10:17.239Z,97687.50
2022-12-28T10:12:46.801Z,97690.00
2022-12-28T10:15:16.607Z,97684.50
2022-12-28T10:17:45.972Z,97691.34
2022-12-28T10:20:19.936Z,97685.94
2022-12-28T10:22:54.558Z,97690.25
2022-12-28T10:25:24.539Z,97682.34
2022-12-28T10:27:54.191Z,97676.34
2022-12-28T10:30:27.299Z,97671.91
2022-12-28T10:33:02.678Z,97668.44
2022-12-28T10:35:36.740Z,97661.25
2022-12-28T10:38:08.635Z,97666.53
2022-12-28T10:40:42.405Z,97656.69
2022-12-28T10:43:19.258Z,97658.50
2022-12-28T10:45:50.601Z,97658.38
2022-12-28T10:48:20.723Z,97654.88
2022-12-28T10:50:52.482Z,97646.03
2022-12-28T10:53:26.519Z,97636.19
2022-12-28T10:56:19.520Z,97629.94
2022-12-28T10:58:48.859Z,97636.78
2022-12-28T11:01:20.129Z,97627.19
2022-12-28T11:04:00.870Z,97626.94
2022-12-28T11:06:30.507Z,97615.91
2022-12-28T11:09:18.605Z,97615.41
2022-12-28T11:11:48.112Z,97607.13
2022-12-28T11:14:23.131Z,97606.88
2022-12-28T11:16:52.945Z,97606.16
2022-12-28T11:19:21.675Z,97599.81
2022-12-28T11:21:50.422Z,97605.06
2022-12-28T11:24:21.164Z,97603.97
2022-12-28T11:26:50.975Z,97594.56
2022-12-28T11:29:20.683Z,97579.78
2022-12-28T11:31:52.258Z,97590.81
2022-12-28T11:34:23.662Z,97583.34
2022-12-28T11:36:52.314Z,97577.81
2022-12-28T11:39:44.958Z,97571.31
2022-12-28T11:42:38.924Z,97563.25
2022-12-28T11:45:03.624Z,97570.78
2022-12-28T11:47:36.715Z,97564.28
2022-12-28T11:50:50.864Z,97566.81
2022-12-28T11:53:55.747Z,97554.19
2022-12-28T11:56:26.879Z,97548.91
2022-12-28T11:59:07.511Z,97542.53
2022-12-28T12:01:49.397Z,97540.72
2022-12-28T12:04:41.217Z,97531.25
2022-12-28T12:07:26.031Z,97531.38
2022-12-28T12:10:30.332Z,97518.31
2022-12-28T12:13:01.062Z,97528.03
2022-12-28T12:15:39.269Z,97521.09
2022-12-28T12:18:15.123Z,97508.41
2022-12-28T12:20:53.940Z,97501.19
2022-12-28T12:23:50.049Z,97499.38
2022-12-28T12:26:22.142Z,97497.84
2022-12-28T12:28:52.541Z,97498.94
2022-12-28T12:31:29.240Z,97500.75
2022-12-28T12:34:01.634Z,97490.19
2022-12-28T12:36:51.234Z,97491.84
2022-12-28T12:39:32.044Z,97490.19
2022-12-28T12:42:08.008Z,97493.78
2022-12-28T12:44:40.891Z,97495.47
2022-12-28T12:47:21.578Z,97484.91
2022-12-28T12:50:01.606Z,97473.63
2022-12-28T12:52:42.006Z,97468.34
2022-12-28T12:55:23.430Z,97465.72
2022-12-28T12:57:59.124Z,97459.59
2022-12-28T13:00:33.952Z,97457.94
2022-12-28T13:03:15.343Z,97458.78
2022-12-28T13:05:48.805Z,97457.94
2022-12-28T13:08:24.019Z,97456.13
2022-12-28T13:10:53.044Z,97447.25
2022-12-28T13:13:27.051Z,97439.31
2022-12-28T13:16:01.027Z,97448.22
2022-12-28T13:18:46.047Z,97442.09
2022-12-28T13:21:20.276Z,97439.31
2022-12-28T13:23:49.549Z,97432.50
2022-12-28T13:26:18.308Z,97425.41
2022-12-28T13:28:51.553Z,97422.91
2022-12-28T13:31:22.843Z,97431.53
2022-12-28T13:33:55.745Z,97428.06
2022-12-28T13:36:24.202Z,97426.38
2022-12-28T13:39:07.146Z,97429.88
2022-12-28T13:41:36.895Z,97425.56
2022-12-28T13:44:33.877Z,97427.34
2022-12-28T13:47:08.244Z,97423.03
2022-12-28T13:49:41.018Z,97421.25
2022-12-28T13:52:12.486Z,97420.41
2022-12-28T13:54:41.665Z,97409.84
2022-12-28T13:57:44.518Z,97408.16
2022-12-28T13:59:59.140Z,97403.03
2022-12-28T14:02:29.394Z,97402.06
2022-12-28T14:04:58.399Z,97398.44
2022-12-28T14:07:29.370Z,97402.06
2022-12-28T14:09:58.568Z,97401.94
2022-12-28T14:12:27.091Z,97394.13
2022-12-28T14:14:55.673Z,97399.41
2022-12-28T14:17:24.383Z,97397.63
2022-12-28T14:19:57.293Z,97387.06
2022-12-28T14:22:27.509Z,97395.94
2022-12-28T14:25:04.017Z,97390.66
2022-12-28T14:27:36.584Z,97394.28
2022-12-28T14:30:07.202Z,97396.91
2022-12-28T14:35:28.333Z,97389.69
2022-12-28T14:37:58.800Z,97392.34
2022-12-28T14:40:30.440Z,97382.63
2022-12-28T14:43:00.396Z,97385.38
2022-12-28T14:46:05.469Z,97388.03
2022-12-28T14:48:34.101Z,97386.09
2022-12-28T14:51:06.678Z,97387.91
2022-12-28T14:53:35.365Z,97383.59
2022-12-28T14:56:06.818Z,97393.19
2022-12-28T14:58:42.632Z,97393.19
2022-12-28T15:01:28.195Z,97382.75
2022-12-28T15:03:58.912Z,97384.41
2022-12-28T15:06:31.450Z,97381.78
2022-12-28T15:09:01.282Z,97373.88
2022-12-28T15:11:31.189Z,97376.50
2022-12-28T15:13:59.628Z,97372.91
2022-12-28T15:16:28.735Z,97371.22
2022-12-28T15:18:58.021Z,97372.91
2022-12-28T15:21:28.245Z,97371.22
2022-12-28T15:23:57.528Z,97372.91
2022-12-28T15:26:27.889Z,97372.91
2022-12-28T15:28:56.883Z,97368.44
2022-12-28T15:31:25.966Z,97362.34
2022-12-28T15:33:54.478Z,97365.81
2022-12-28T15:36:24.815Z,97364.00
2022-12-28T15:38:56.810Z,97370.25
2022-12-28T15:41:43.036Z,97360.53
2022-12-28T15:44:11.390Z,97357.06
2022-12-28T15:46:40.736Z,97354.28
2022-12-28T15:49:12.275Z,97346.63
2022-12-28T15:51:40.945Z,97345.66
2022-12-28T15:54:10.766Z,97346.50
2022-12-28T15:56:40.643Z,97351.78
2022-12-28T15:59:13.175Z,97351.78
2022-12-28T16:01:43.907Z,97346.50
2022-12-28T16:04:12.814Z,97347.47
2022-12-28T16:06:44.652Z,97358.72
2022-12-28T16:09:15.468Z,97355.25
2022-12-28T16:11:45.003Z,97350.81
2022-12-28T16:14:16.894Z,97350.09
2022-12-28T16:16:47.634Z,97346.50
2022-12-28T16:19:18.180Z,97343.03
2022-12-28T16:21:47.300Z,97345.66
2022-12-28T16:24:17.254Z,97338.59
2022-12-28T16:26:45.788Z,97330.66
2022-12-28T16:29:14.519Z,97344.81
2022-12-28T16:31:43.084Z,97337.63
2022-12-28T16:34:14.157Z,97330.66
2022-12-28T16:36:42.908Z,97341.22
2022-12-28T16:39:14.589Z,97334.00
2022-12-28T16:41:44.460Z,97327.88
2022-12-28T16:44:15.332Z,97319.28
2022-12-28T16:46:44.225Z,97324.53
2022-12-28T16:49:13.450Z,97316.63
2022-12-28T16:51:44.726Z,97323.59
2022-12-28T16:54:16.728Z,97319.13
2022-12-28T16:56:47.693Z,97323.44
2022-12-28T16:59:17.274Z,97319.97
2022-12-28T17:01:46.425Z,97313.84
2022-12-28T17:04:15.427Z,97320.09
2022-12-28T17:06:46.473Z,97325.38
2022-12-28T17:09:15.745Z,97313.16
2022-12-28T17:11:45.985Z,97306.91
2022-12-28T17:14:17.421Z,97307.88
2022-12-28T17:16:53.123Z,97300.94
2022-12-28T17:19:22.534Z,97302.59
2022-12-28T17:21:50.959Z,97295.50
2022-12-28T17:24:19.378Z,97310.53
2022-12-28T17:26:49.353Z,97313.03
2022-12-28T17:29:17.913Z,97307.75
2022-12-28T17:31:46.530Z,97311.47
2022-12-28T17:34:15.183Z,97303.44
2022-12-28T17:36:44.028Z,97305.25
2022-12-28T17:39:12.447Z,97305.25
2022-12-28T17:41:41.063Z,97297.47
2022-12-28T17:44:11.735Z,97299.97
2022-12-28T17:46:41.645Z,97301.75
2022-12-28T17:49:13.012Z,97301.63
2022-12-28T17:51:43.513Z,97302.59
2022-12-28T17:54:13.095Z,97304.41
2022-12-28T17:56:42.313Z,97306.22
2022-12-28T17:59:14.999Z,97307.03
2022-12-28T18:01:43.967Z,97299.97
2022-12-28T18:04:12.624Z,97292.88
2022-12-28T18:06:41.226Z,97281.47
2022-12-28T18:09:09.674Z,97295.50
2022-12-28T18:11:38.248Z,97288.56
2022-12-28T18:14:07.706Z,97288.44
2022-12-28T18:16:37.519Z,97281.47
2022-12-28T18:19:06.009Z,97290.38
2022-12-28T18:21:34.438Z,97288.56
2022-12-28T18:24:03.662Z,97291.22
2022-12-28T18:26:32.147Z,97286.75
2022-12-28T18:29:00.573Z,97291.22
2022-12-28T18:31:30.463Z,97283.44
2022-12-28T18:34:02.219Z,97275.50
2022-12-28T18:36:31.145Z,97277.19
2022-12-28T18:38:59.681Z,97268.41
2022-12-28T18:41:33.758Z,97277.31
2022-12-28T18:44:03.408Z,97275.50
2022-12-28T18:46:31.977Z,97276.34
2022-12-28T18:49:02.170Z,97276.47
2022-12-28T18:51:30.742Z,97271.91
2022-12-28T18:53:59.170Z,97277.31
2022-12-28T18:56:28.028Z,97273.84
2022-12-28T18:58:57.423Z,97275.63
2022-12-28T19:04:18.063Z,97273.84
2022-12-28T19:06:46.837Z,97267.59
2022-12-28T19:09:15.370Z,97270.50
2022-12-28T19:11:45.231Z,97268.81
2022-12-28T19:14:15.073Z,97267.03
2022-12-28T19:16:44.933Z,97258.13
2022-12-28T19:19:13.706Z,97254.53
2022-12-28T19:21:43.906Z,97241.47
2022-12-28T19:24:14.481Z,97241.47
2022-12-28T19:26:42.962Z,97240.63
2022-12-28T19:29:12.077Z,97234.53
2022-12-28T19:31:40.914Z,97235.34
2022-12-28T19:34:09.695Z,97234.53
2022-12-28T19:36:38.692Z,97229.94
2022-12-28T19:39:09.099Z,97225.50
2022-12-28T19:41:38.193Z,97222.03
2022-12-28T19:44:06.772Z,97222.84
2022-12-28T19:46:35.337Z,97212.44
2022-12-28T19:49:05.260Z,97218.53
2022-12-28T19:51:34.618Z,97217.72
2022-12-28T19:54:03.176Z,97208.97
2022-12-28T19:56:32.960Z,97207.16
2022-12-28T19:59:06.543Z,97196.75
2022-12-28T20:01:36.889Z,97205.50
2022-12-28T20:04:12.793Z,97191.47
2022-12-28T20:06:42.634Z,97200.34
2022-12-28T20:09:11.748Z,97198.53
2022-12-28T20:11:42.101Z,97184.66
2022-12-28T20:14:12.942Z,97185.47
2022-12-28T20:16:43.031Z,97181.03
2022-12-28T20:19:11.958Z,97188.13
2022-12-28T20:21:41.513Z,97186.31
2022-12-28T20:24:11.997Z,97177.56
2022-12-28T20:26:41.738Z,97188.97
2022-12-28T20:29:18.554Z,97176.72
2022-12-28T20:31:47.330Z,97168.81
2022-12-28T20:34:16.443Z,97163.69
2022-12-28T20:36:44.850Z,97164.50
2022-12-28T20:39:13.336Z,97168.94
2022-12-28T20:42:00.927Z,97159.22
2022-12-28T20:44:32.339Z,97162.84
2022-12-28T20:47:01.633Z,97162.72
2022-12-28T20:49:31.402Z,97165.47
2022-12-28T20:51:59.897Z,97169.94
2022-12-28T20:54:28.427Z,97159.22
2022-12-28T20:56:58.181Z,97154.94
2022-12-28T20:59:26.684Z,97152.28
2022-12-28T21:01:55.323Z,97156.59
2022-12-28T21:04:24.964Z,97152.28
2022-12-28T21:06:53.963Z,97157.56
2022-12-28T21:09:22.466Z,97139.09
2022-12-28T21:11:50.969Z,97136.47
2022-12-28T21:14:20.888Z,97140.91
2022-12-28T21:16:49.767Z,97129.50
2022-12-28T21:19:18.303Z,97138.41
2022-12-28T21:21:48.403Z,97131.31
2022-12-28T21:24:16.945Z,97131.31
2022-12-28T21:26:45.369Z,97126.88
2022-12-28T21:29:13.745Z,97125.34
2022-12-28T21:31:43.533Z,97115.63
2022-12-28T21:34:11.922Z,97127.16
2022-12-28T21:36:40.395Z,97135.75
2022-12-28T21:39:09.015Z,97117.28
2022-12-28T21:41:49.464Z,97115.63
2022-12-28T21:44:20.403Z,97114.94
2022-12-28T21:46:51.670Z,97116.59
2022-12-28T21:49:20.568Z,97109.66
2022-12-28T21:51:50.059Z,97109.66
2022-12-28T21:54:20.576Z,97109.66
2022-12-28T21:56:51.840Z,97105.34
2022-12-28T21:59:20.609Z,97100.06
2022-12-28T22:02:06.618Z,97099.50
2022-12-28T22:05:00.238Z,97099.22
2022-12-28T22:07:31.225Z,97092.44
2022-12-28T22:10:17.138Z,97095.06
2022-12-28T22:12:45.669Z,97090.63
2022-12-28T22:15:34.217Z,97083.69
2022-12-28T22:18:04.941Z,97087.16
2022-12-28T22:20:35.407Z,97088.13
2022-12-28T22:23:04.151Z,97076.59
2022-12-28T22:25:32.745Z,97085.47
2022-12-28T22:28:01.790Z,97070.34
2022-12-28T22:30:31.125Z,97079.22
2022-12-28T22:32:59.563Z,97083.69
2022-12-28T22:35:28.005Z,97077.56
2022-12-28T22:37:57.912Z,97076.72
2022-12-28T22:40:26.422Z,97070.63
2022-12-28T22:42:54.806Z,97067.97
2022-12-28T22:45:24.825Z,97076.88
2022-12-28T22:47:59.199Z,97066.31
2022-12-28T22:50:28.652Z,97065.34
2022-12-28T22:52:59.213Z,97060.06
2022-12-28T22:55:27.674Z,97065.34
2022-12-28T22:57:56.129Z,97060.91
2022-12-28T23:00:24.564Z,97062.84
2022-12-28T23:02:53.531Z,97055.06
2022-12-28T23:05:22.372Z,97047.28
2022-12-28T23:07:51.028Z,97048.97
2022-12-28T23:10:20.928Z,97038.28
2022-12-28T23:12:49.376Z,97042.56
2022-12-28T23:15:18.875Z,97029.53
2022-12-28T23:17:48.444Z,97021.75
2022-12-28T23:20:40.114Z,97030.50
2022-12-28T23:23:38.723Z,97027.84
2022-12-28T23:26:27.756Z,97023.41
2022-12-28T23:28:56.169Z,97020.09
2022-12-28T23:31:24.912Z,97016.47
2022-12-28T23:33:53.623Z,97016.47
2022-12-28T23:36:22.390Z,97013.84
2022-12-28T23:38:51.587Z,97016.47
2022-12-28T23:41:38.731Z,97013.00
2022-12-28T23:44:08.377Z,97005.91
2022-12-28T23:46:36.937Z,97013.97
2022-12-28T23:49:05.477Z,97016.59
2022-12-28T23:51:33.900Z,97009.53
2022-12-28T23:54:02.331Z,97006.06
2022-12-28T23:56:32.068Z,96997.31
2022-12-28T23:59:00.531Z,97005.09
